Time;durP1;ratioP1;P1;durP2;ratioP2;P2;SDS_P1;SDS_P2;PMS_P1;PMS_P2;Temp;Humidity;BMP_temperature;BMP_pressure;BME280_temperature;BME280_humidity;BME280_pressure;Samples;Min_cycle;Max_cycle;Signal;HPM_P1;HPM_P2
2022/12/28 00:00:22;;;;;;;15.73;8.13;;;-0.10;99.90;;;;;;4784452;30;20083;-68
2022/12/28 00:02:49;;;;;;;20.00;10.40;;;-0.10;99.90;;;;;;4778112;29;20056;-68
2022/12/28 00:05:17;;;;;;;20.25;9.57;;;-0.10;99.90;;;;;;4784191;29;20146;-68
2022/12/28 00:07:45;;;;;;;16.85;9.70;;;-0.10;99.90;;;;;;4774843;29;20146;-67
2022/12/28 00:10:13;;;;;;;20.20;10.95;;;-0.10;99.90;;;;;;4768375;30;20471;-68
2022/12/28 00:12:41;;;;;;;19.10;9.57;;;-0.10;99.90;;;;;;4771135;30;20095;-67
2022/12/28 00:15:09;;;;;;;20.38;9.52;;;-0.20;99.90;;;;;;4766687;30;20146;-69
2022/12/28 00:17:37;;;;;;;18.45;9.15;;;-0.10;99.90;;;;;;4773510;30;20513;-67
2022/12/28 00:20:06;;;;;;;22.92;9.93;;;-0.10;99.90;;;;;;4779256;29;20132;-70
2022/12/28 00:22:35;;;;;;;24.00;10.32;;;-0.10;99.90;;;;;;4767379;30;20146;-70
2022/12/28 00:25:02;;;;;;;18.20;8.95;;;-0.10;99.90;;;;;;4776542;30;20710;-68
2022/12/28 00:27:31;;;;;;;23.77;12.02;;;-0.10;99.90;;;;;;4780430;30;20158;-69
2022/12/28 00:29:59;;;;;;;18.33;11.38;;;-0.10;99.90;;;;;;4777393;29;20393;-68
2022/12/28 00:32:27;;;;;;;17.27;10.02;;;-0.10;99.90;;;;;;4782874;30;20059;-68
2022/12/28 00:34:54;;;;;;;20.38;9.88;;;-0.10;99.90;;;;;;4773586;29;20520;-68
2022/12/28 00:37:22;;;;;;;18.40;8.98;;;0.00;99.90;;;;;;4768029;29;20170;-68
2022/12/28 00:39:49;;;;;;;24.20;9.30;;;0.00;99.90;;;;;;4767420;30;20075;-68
2022/12/28 00:42:17;;;;;;;14.93;8.02;;;0.00;99.90;;;;;;4770675;30;20481;-68
2022/12/28 00:44:46;;;;;;;18.52;9.73;;;0.00;99.90;;;;;;4790002;29;20059;-68
2022/12/28 00:47:16;;;;;;;16.83;9.10;;;0.10;99.90;;;;;;4804137;29;20051;-68
2022/12/28 00:49:44;;;;;;;15.77;7.68;;;0.10;99.90;;;;;;4786751;29;20055;-67
2022/12/28 00:52:11;;;;;;;19.10;8.82;;;0.10;99.90;;;;;;4765685;30;20240;-67
2022/12/28 00:54:39;;;;;;;14.18;7.82;;;0.10;99.90;;;;;;4772182;30;20142;-69
2022/12/28 00:57:06;;;;;;;14.77;6.95;;;0.10;99.90;;;;;;4798655;29;20055;-67
2022/12/28 00:59:34;;;;;;;17.70;7.32;;;0.20;99.90;;;;;;4798819;29;20060;-69
2022/12/28 01:02:02;;;;;;;12.55;6.63;;;0.20;99.90;;;;;;4769646;30;20091;-68
2022/12/28 01:04:30;;;;;;;16.48;7.00;;;0.30;99.90;;;;;;4781559;30;20056;-67
2022/12/28 01:06:57;;;;;;;15.50;7.25;;;0.30;99.90;;;;;;4780311;29;20043;-68
2022/12/28 01:09:25;;;;;;;13.90;6.95;;;0.30;99.90;;;;;;4778461;29;20087;-68
2022/12/28 01:11:52;;;;;;;21.20;7.50;;;0.30;99.90;;;;;;4774866;29;20059;-68
2022/12/28 01:14:20;;;;;;;15.60;6.43;;;0.40;99.90;;;;;;4778989;30;20118;-68
2022/12/28 01:16:47;;;;;;;14.70;6.55;;;0.40;99.90;;;;;;4776623;29;20059;-69
2022/12/28 01:19:20;;;;;;;14.15;7.00;;;0.40;99.90;;;;;;4766267;30;20429;-68
2022/12/28 01:21:49;;;;;;;15.43;6.95;;;0.50;99.90;;;;;;4767537;30;20054;-68
2022/12/28 01:24:17;;;;;;;12.32;6.53;;;0.60;99.90;;;;;;4781481;30;20149;-67
2022/12/28 01:26:44;;;;;;;14.68;6.95;;;0.60;99.90;;;;;;4779442;30;20146;-68
2022/12/28 01:29:12;;;;;;;18.50;7.47;;;0.60;99.90;;;;;;4775884;29;20059;-68
2022/12/28 01:31:39;;;;;;;18.55;6.75;;;0.60;99.90;;;;;;4781163;29;20055;-67
2022/12/28 01:34:07;;;;;;;17.02;7.38;;;0.60;99.90;;;;;;4767216;30;20052;-67
2022/12/28 01:36:36;;;;;;;17.50;6.85;;;0.60;99.90;;;;;;4778712;30;20055;-68
2022/12/28 01:39:07;;;;;;;14.75;6.53;;;0.50;99.90;;;;;;4793622;29;20116;-68
2022/12/28 01:41:39;;;;;;;13.85;6.75;;;0.60;99.90;;;;;;4783352;30;20154;-68
2022/12/28 01:44:44;;;;;;;12.87;6.43;;;0.60;99.90;;;;;;4780456;29;20048;-68
2022/12/28 01:47:20;;;;;;;14.70;6.70;;;0.60;99.90;;;;;;4784099;30;20313;-66
2022/12/28 01:50:02;;;;;;;14.55;6.78;;;0.60;99.90;;;;;;4776894;29;20098;-68
2022/12/28 01:52:36;;;;;;;16.55;6.80;;;0.60;99.90;;;;;;4788417;29;20142;-69
2022/12/28 01:55:10;;;;;;;11.93;5.82;;;0.60;99.90;;;;;;4801354;29;20052;-68
2022/12/28 01:57:45;;;;;;;15.20;6.45;;;0.60;99.90;;;;;;4773586;30;20112;-68
2022/12/28 02:00:16;;;;;;;12.38;6.22;;;0.60;99.90;;;;;;4768009;30;20096;-69
2022/12/28 02:02:52;;;;;;;13.73;6.53;;;0.50;99.90;;;;;;4771612;30;20050;-69
2022/12/28 02:05:30;;;;;;;12.15;6.30;;;0.50;99.90;;;;;;4776715;30;20080;-69
2022/12/28 02:08:06;;;;;;;11.45;5.97;;;0.60;99.90;;;;;;4768577;30;20142;-68
2022/12/28 02:10:35;;;;;;;18.90;6.95;;;0.60;99.90;;;;;;4769885;30;20067;-68
2022/12/28 02:13:04;;;;;;;11.60;5.88;;;0.60;99.90;;;;;;4772023;30;20063;-68
2022/12/28 02:15:32;;;;;;;11.13;5.38;;;0.60;99.90;;;;;;4772764;30;20057;-68
2022/12/28 02:18:00;;;;;;;15.07;5.80;;;0.60;99.90;;;;;;4785277;30;20054;-68
2022/12/28 02:20:37;;;;;;;9.10;5.72;;;0.60;99.90;;;;;;4801493;29;20058;-68
2022/12/28 02:23:37;;;;;;;12.10;6.10;;;0.60;99.90;;;;;;4784002;29;20047;-68
2022/12/28 02:26:35;;;;;;;11.70;6.43;;;0.60;99.90;;;;;;4776233;30;20052;-68
2022/12/28 02:29:46;;;;;;;10.88;5.85;;;0.70;99.90;;;;;;4768885;30;20090;-68
2022/12/28 02:32:27;;;;;;;10.93;4.90;;;0.70;99.90;;;;;;4776959;30;20070;-68
2022/12/28 02:35:03;;;;;;;7.88;4.70;;;0.70;99.90;;;;;;4773668;29;20059;-68
2022/12/28 02:37:38;;;;;;;13.55;5.70;;;0.70;99.90;;;;;;4768873;30;20058;-68
2022/12/28 02:40:11;;;;;;;13.93;5.80;;;0.70;99.90;;;;;;4767063;30;20060;-68
2022/12/28 02:42:41;;;;;;;13.07;5.72;;;0.80;99.90;;;;;;4767727;30;20062;-67
2022/12/28 02:51:18;;;;;;;15.25;5.82;;;0.80;99.90;;;;;;4772331;29;20075;-70
2022/12/28 02:56:06;;;;;;;12.32;5.55;;;0.80;99.90;;;;;;4769056;30;20055;-68
2022/12/28 02:57:22;;;;;;;10.93;4.80;;;0.80;99.90;;;;;;4771590;30;20062;-67
2022/12/28 02:59:58;;;;;;;;;;;0.80;99.90;;;;;;4782167;30;20054;-67
2022/12/28 03:02:48;;;;;;;13.05;5.80;;;0.80;99.90;;;;;;4775717;29;19998;-67
2022/12/28 03:08:13;;;;;;;13.52;5.18;;;0.80;99.90;;;;;;4776828;30;20124;-68
2022/12/28 03:08:38;;;;;;;14.40;5.55;;;0.70;99.90;;;;;;4765744;29;20166;-69
2022/12/28 03:11:10;;;;;;;9.60;4.50;;;0.80;99.90;;;;;;4782754;30;20070;-69
2022/12/28 03:13:50;;;;;;;19.83;5.10;;;0.80;99.90;;;;;;4784208;29;20066;-69
2022/12/28 03:16:25;;;;;;;13.98;4.88;;;0.80;99.90;;;;;;4789438;29;20056;-69
2022/12/28 03:33:08;;;;;;;13.48;5.30;;;1.10;99.90;;;;;;4768073;30;20142;-69
2022/12/28 03:35:46;;;;;;;15.20;5.50;;;1.00;99.90;;;;;;4767780;30;20083;-69
2022/12/28 03:38:26;;;;;;;17.63;6.75;;;1.10;99.90;;;;;;4789886;29;20553;-73
2022/12/28 03:41:03;;;;;;;9.07;4.20;;;1.00;99.90;;;;;;4797500;29;20152;-72
2022/12/28 03:43:41;;;;;;;13.90;5.25;;;1.10;99.90;;;;;;4798183;29;20059;-72
2022/12/28 03:46:19;;;;;;;12.32;4.90;;;1.10;99.90;;;;;;4779024;30;20052;-72
2022/12/28 03:48:48;;;;;;;12.90;5.40;;;1.10;99.90;;;;;;4785755;29;20520;-71
2022/12/28 03:51:24;;;;;;;12.48;4.32;;;1.10;99.90;;;;;;4771819;29;20489;-72
2022/12/28 03:53:52;;;;;;;8.32;4.18;;;1.20;99.90;;;;;;4801016;29;20617;-72
2022/12/28 03:56:25;;;;;;;11.10;4.55;;;1.20;99.90;;;;;;4784268;29;20344;-71
2022/12/28 03:58:56;;;;;;;12.65;5.15;;;1.30;99.90;;;;;;4791466;29;20066;-73
2022/12/28 04:01:31;;;;;;;9.50;4.75;;;1.30;99.90;;;;;;4794924;29;20059;-71
2022/12/28 04:03:59;;;;;;;13.30;4.07;;;1.30;99.90;;;;;;4778082;30;20059;-72
2022/12/28 04:06:28;;;;;;;14.10;4.90;;;1.40;99.90;;;;;;4775844;30;20135;-72
2022/12/28 04:08:56;;;;;;;11.60;4.40;;;1.30;99.90;;;;;;4766462;30;20421;-72
2022/12/28 04:11:27;;;;;;;13.73;5.05;;;1.40;99.90;;;;;;4754367;30;20136;-70
2022/12/28 04:13:55;;;;;;;16.33;5.15;;;1.40;99.90;;;;;;4769261;30;20138;-70
2022/12/28 04:16:23;;;;;;;12.77;5.55;;;1.40;99.90;;;;;;4766735;30;20154;-72
2022/12/28 04:18:51;;;;;;;13.95;5.20;;;1.40;99.90;;;;;;4783867;29;20150;-71
2022/12/28 04:21:19;;;;;;;14.75;4.78;;;1.50;99.90;;;;;;4780351;29;20524;-71
2022/12/28 04:23:49;;;;;;;13.13;5.93;;;1.50;99.90;;;;;;4784021;29;20055;-70
2022/12/28 04:26:23;;;;;;;15.27;4.85;;;1.50;99.90;;;;;;4778543;29;20525;-71
2022/12/28 04:28:53;;;;;;;13.43;5.50;;;;;;;;;;4769609;30;20578;-72
2022/12/28 04:31:23;;;;;;;17.38;6.72;;;1.60;99.90;;;;;;4768530;30;20063;-71
2022/12/28 04:34:07;;;;;;;17.00;6.22;;;1.60;99.90;;;;;;4777400;30;20502;-71
2022/12/28 04:36:39;;;;;;;11.93;5.25;;;1.60;99.90;;;;;;4797991;29;20416;-72
2022/12/28 04:39:13;;;;;;;14.52;4.93;;;1.60;99.90;;;;;;4783826;29;20063;-71
2022/12/28 04:41:40;;;;;;;14.02;5.45;;;1.70;99.90;;;;;;4771970;30;20141;-72
2022/12/28 04:44:07;;;;;;;16.25;5.47;;;1.70;99.90;;;;;;4766126;30;20666;-71
2022/12/28 04:46:35;;;;;;;20.55;6.47;;;1.70;99.90;;;;;;4782116;30;20500;-72
2022/12/28 04:49:03;;;;;;;17.83;6.95;;;1.80;99.90;;;;;;4780300;29;20050;-71
2022/12/28 04:51:30;;;;;;;19.52;8.00;;;1.80;99.90;;;;;;4762806;30;20056;-72
2022/12/28 04:53:58;;;;;;;18.73;5.40;;;1.80;99.90;;;;;;4795727;29;20058;-71
2022/12/28 04:56:28;;;;;;;25.08;8.65;;;1.80;99.90;;;;;;4779848;29;20047;-72
2022/12/28 04:58:59;;;;;;;21.67;6.25;;;1.80;99.90;;;;;;4769184;30;20062;-71
2022/12/28 05:01:27;;;;;;;19.17;7.25;;;1.90;99.90;;;;;;4773919;29;20560;-72
2022/12/28 05:03:55;;;;;;;14.75;5.47;;;1.90;99.90;;;;;;4783188;29;20157;-71
2022/12/28 05:06:24;;;;;;;16.77;6.28;;;1.90;99.90;;;;;;4775712;29;20055;-71
2022/12/28 05:08:52;;;;;;;19.50;6.95;;;1.90;99.90;;;;;;4777305;29;20101;-73
2022/12/28 05:11:22;;;;;;;15.52;5.40;;;1.90;99.90;;;;;;4777559;30;20129;-72
2022/12/28 05:13:51;;;;;;;15.32;6.97;;;1.90;99.90;;;;;;4782881;29;20059;-72
2022/12/28 05:16:22;;;;;;;23.85;8.35;;;1.90;99.90;;;;;;4780910;30;20079;-72
2022/12/28 05:18:49;;;;;;;22.80;7.10;;;1.90;99.90;;;;;;4775244;29;20055;-72
2022/12/28 05:21:19;;;;;;;16.98;5.30;;;1.90;99.90;;;;;;4787687;30;20047;-72
2022/12/28 05:23:48;;;;;;;17.27;6.20;;;1.90;99.90;;;;;;4783513;29;20295;-72
2022/12/28 05:26:18;;;;;;;19.17;7.93;;;1.90;99.90;;;;;;4771250;30;20421;-72
2022/12/28 05:28:46;;;;;;;16.38;7.45;;;1.90;99.90;;;;;;4775860;30;20063;-72
2022/12/28 05:31:18;;;;;;;16.02;6.45;;;1.90;99.90;;;;;;4779460;29;20479;-72
2022/12/28 05:33:46;;;;;;;18.20;6.43;;;1.90;99.90;;;;;;4781350;30;20475;-71
2022/12/28 05:36:16;;;;;;;19.67;7.93;;;2.00;99.90;;;;;;4784757;29;20051;-72
2022/12/28 05:38:45;;;;;;;21.50;7.78;;;2.00;99.90;;;;;;4776620;29;20074;-72
2022/12/28 05:41:16;;;;;;;20.15;7.78;;;2.00;99.90;;;;;;4773053;30;20052;-72
2022/12/28 05:43:45;;;;;;;13.93;6.15;;;2.00;99.90;;;;;;4780231;29;20068;-71
2022/12/28 05:46:17;;;;;;;13.45;6.88;;;2.00;99.90;;;;;;4782939;29;20120;-72
2022/12/28 05:48:46;;;;;;;18.83;7.05;;;2.00;99.90;;;;;;4785484;29;20065;-71
2022/12/28 05:51:17;;;;;;;15.43;6.75;;;2.10;99.90;;;;;;4772131;29;20056;-71
2022/12/28 05:53:44;;;;;;;15.40;7.10;;;2.10;99.90;;;;;;4770131;30;20067;-73
2022/12/28 05:56:14;;;;;;;18.50;8.20;;;2.10;99.90;;;;;;4776010;29;20443;-73
2022/12/28 05:58:43;;;;;;;22.27;9.85;;;2.10;99.90;;;;;;4771139;29;20422;-72
2022/12/28 06:01:13;;;;;;;23.55;8.50;;;2.10;99.90;;;;;;4774568;30;20079;-71
2022/12/28 06:03:43;;;;;;;17.95;7.13;;;2.20;99.90;;;;;;4785558;29;20457;-72
2022/12/28 06:06:14;;;;;;;16.27;5.03;;;2.20;99.90;;;;;;4775541;29;20104;-72
2022/12/28 06:08:42;;;;;;;11.32;4.20;;;2.10;99.90;;;;;;4771098;30;20473;-72
2022/12/28 06:11:13;;;;;;;10.80;3.40;;;2.10;99.90;;;;;;4778067;30;20059;-71
2022/12/28 06:13:40;;;;;;;6.88;3.08;;;2.20;99.90;;;;;;4779498;30;20054;-72
2022/12/28 06:16:11;;;;;;;11.13;3.55;;;2.20;99.90;;;;;;4774702;30;20452;-77
2022/12/28 06:18:39;;;;;;;7.53;2.65;;;2.20;99.90;;;;;;4780408;29;20398;-77
2022/12/28 06:21:13;;;;;;;7.50;2.47;;;2.20;99.90;;;;;;4779480;29;20051;-76
2022/12/28 06:23:41;;;;;;;4.90;1.80;;;2.30;99.90;;;;;;4773745;30;20060;-75
2022/12/28 06:26:11;;;;;;;4.10;2.72;;;2.20;99.90;;;;;;4768227;30;20374;-75
2022/12/28 06:28:39;;;;;;;4.70;1.60;;;2.30;99.90;;;;;;4768688;30;20154;-70
2022/12/28 06:31:10;;;;;;;6.57;1.63;;;2.30;99.90;;;;;;4775761;29;20481;-70
2022/12/28 06:33:38;;;;;;;1.95;1.60;;;2.30;99.90;;;;;;4774875;30;20055;-71
2022/12/28 06:36:12;;;;;;;6.85;1.92;;;2.30;99.90;;;;;;4783352;30;20062;-69
2022/12/28 06:38:40;;;;;;;5.75;1.85;;;;;;;;;;4787093;29;20091;-71
2022/12/28 06:41:10;;;;;;;6.30;2.10;;;2.10;99.90;;;;;;4781832;30;20058;-71
2022/12/28 06:43:40;;;;;;;6.28;2.22;;;2.10;99.90;;;;;;4779662;29;20128;-70
2022/12/28 06:46:08;;;;;;;4.93;1.90;;;2.10;99.90;;;;;;4777921;29;20573;-69
2022/12/28 06:48:37;;;;;;;5.20;1.95;;;2.10;99.90;;;;;;4782577;30;20467;-69
2022/12/28 06:51:10;;;;;;;5.05;1.98;;;2.10;99.90;;;;;;4773809;29;20497;-71
2022/12/28 06:53:38;;;;;;;6.95;2.40;;;2.20;99.90;;;;;;4785051;29;20067;-69
2022/12/28 06:56:09;;;;;;;5.90;2.42;;;2.20;99.90;;;;;;4784240;30;20432;-67
2022/12/28 06:58:37;;;;;;;8.20;2.15;;;2.20;99.90;;;;;;4786042;29;20058;-70
2022/12/28 07:01:09;;;;;;;7.57;2.88;;;2.10;99.90;;;;;;4777438;30;20059;-70
2022/12/28 07:03:37;;;;;;;5.07;2.53;;;2.00;99.90;;;;;;4779585;30;20508;-69
2022/12/28 07:06:07;;;;;;;6.85;2.05;;;1.90;99.90;;;;;;4783342;29;20486;-70
2022/12/28 07:08:36;;;;;;;7.60;2.22;;;1.90;99.90;;;;;;4782488;29;20332;-69
2022/12/28 07:11:04;;;;;;;7.93;2.20;;;1.90;99.90;;;;;;4781131;30;20704;-69
2022/12/28 07:13:32;;;;;;;5.10;2.35;;;1.90;99.90;;;;;;4786282;29;20055;-69
2022/12/28 07:16:04;;;;;;;10.00;2.45;;;1.80;99.90;;;;;;4779416;29;20124;-70
2022/12/28 07:18:31;;;;;;;5.88;2.20;;;1.80;99.90;;;;;;4767691;30;20054;-68
2022/12/28 07:21:01;;;;;;;5.22;2.35;;;1.90;99.90;;;;;;4778027;30;20282;-71
2022/12/28 07:23:30;;;;;;;5.65;2.13;;;1.90;99.90;;;;;;4775008;30;20066;-69
2022/12/28 07:26:05;;;;;;;7.25;2.10;;;1.90;99.90;;;;;;4768914;30;20567;-69
2022/12/28 07:28:33;;;;;;;6.53;2.63;;;2.00;99.90;;;;;;4771664;30;20055;-73
2022/12/28 07:31:06;;;;;;;5.35;2.58;;;2.00;99.90;;;;;;4768749;30;20151;-73
2022/12/28 07:33:35;;;;;;;10.20;4.40;;;2.00;99.90;;;;;;4767444;30;20468;-74
2022/12/28 07:36:04;;;;;;;14.05;5.85;;;2.10;99.90;;;;;;4768927;30;20055;-70
2022/12/28 07:38:33;;;;;;;27.90;9.88;;;2.00;99.90;;;;;;4770496;29;20591;-69
2022/12/28 07:41:07;;;;;;;44.50;11.38;;;2.00;99.90;;;;;;4775638;30;20060;-69
2022/12/28 07:43:35;;;;;;;22.45;7.97;;;2.00;99.90;;;;;;4776146;29;20079;-69
2022/12/28 07:46:05;;;;;;;35.63;8.25;;;2.10;99.90;;;;;;4781356;30;20214;-68
2022/12/28 07:48:35;;;;;;;19.98;6.38;;;2.20;99.90;;;;;;4779757;29;20062;-68
2022/12/28 07:51:09;;;;;;;21.30;6.60;;;2.20;99.90;;;;;;4776440;29;20051;-70
2022/12/28 07:53:39;;;;;;;11.45;4.63;;;2.30;99.90;;;;;;4785598;29;20051;-70
2022/12/28 07:56:07;;;;;;;14.52;4.95;;;2.30;99.90;;;;;;4779024;29;20074;-69
2022/12/28 07:58:35;;;;;;;10.55;5.32;;;2.40;99.90;;;;;;4780567;30;20101;-69
2022/12/28 08:01:08;;;;;;;21.88;6.95;;;2.40;99.90;;;;;;4780095;29;20607;-70
2022/12/28 08:03:37;;;;;;;14.82;5.20;;;2.40;99.90;;;;;;4783542;30;20077;-69
2022/12/28 08:06:12;;;;;;;11.95;4.65;;;2.40;99.90;;;;;;4777527;30;20471;-69
2022/12/28 08:08:44;;;;;;;9.10;3.40;;;2.40;99.90;;;;;;4781551;30;20533;-73
2022/12/28 08:11:15;;;;;;;5.88;2.83;;;2.40;99.90;;;;;;4810664;29;20055;-72
2022/12/28 08:13:46;;;;;;;7.32;2.97;;;2.40;99.90;;;;;;4783061;29;20055;-69
2022/12/28 08:16:17;;;;;;;3.70;2.58;;;2.40;99.90;;;;;;4781966;29;20059;-71
2022/12/28 08:18:45;;;;;;;5.38;3.00;;;2.40;99.90;;;;;;4775116;29;20051;-70
2022/12/28 08:21:15;;;;;;;13.10;3.83;;;2.40;99.90;;;;;;4775872;30;20051;-70
2022/12/28 08:23:45;;;;;;;17.65;3.88;;;2.50;99.90;;;;;;4788276;29;20113;-70
2022/12/28 08:26:19;;;;;;;11.55;4.90;;;2.50;99.90;;;;;;4772594;30;20054;-71
2022/12/28 08:28:52;;;;;;;23.02;5.63;;;2.50;99.90;;;;;;4778005;29;20100;-72
2022/12/28 08:31:23;;;;;;;13.27;4.90;;;2.60;99.90;;;;;;4782581;29;20062;-72
2022/12/28 08:33:52;;;;;;;16.60;4.43;;;2.60;99.90;;;;;;4777929;29;20417;-70
2022/12/28 08:36:20;;;;;;;8.80;4.00;;;2.60;99.90;;;;;;4781028;29;20056;-69
2022/12/28 08:38:50;;;;;;;8.38;3.70;;;2.50;99.90;;;;;;4775984;29;20055;-71
2022/12/28 08:41:21;;;;;;;7.57;2.88;;;2.50;99.90;;;;;;4778956;29;20444;-70
2022/12/28 08:43:50;;;;;;;5.25;2.47;;;2.50;99.90;;;;;;4777442;29;20059;-71
2022/12/28 08:46:20;;;;;;;3.20;2.15;;;2.50;99.90;;;;;;4780166;29;20057;-72
2022/12/28 08:48:49;;;;;;;4.75;1.90;;;2.40;99.90;;;;;;4778957;29;20517;-71
2022/12/28 08:51:20;;;;;;;2.50;2.03;;;2.40;99.90;;;;;;4775305;29;20059;-71
2022/12/28 08:53:50;;;;;;;5.32;1.90;;;2.40;99.90;;;;;;4778329;29;20104;-71
2022/12/28 08:56:21;;;;;;;6.85;1.80;;;2.40;99.90;;;;;;4807243;29;20637;-72
2022/12/28 08:58:50;;;;;;;4.22;2.03;;;2.40;99.90;;;;;;4779920;29;20055;-72
2022/12/28 09:01:21;;;;;;;4.28;2.17;;;2.40;99.90;;;;;;4781094;29;20044;-73
2022/12/28 09:03:50;;;;;;;3.20;1.75;;;2.30;99.90;;;;;;4783037;29;20087;-73
2022/12/28 09:06:21;;;;;;;4.40;1.90;;;2.20;99.90;;;;;;4782618;29;20049;-73
2022/12/28 09:08:51;;;;;;;3.03;2.08;;;2.20;99.90;;;;;;4780242;29;20062;-71
2022/12/28 09:11:19;;;;;;;5.82;2.15;;;2.30;99.90;;;;;;4783041;29;20058;-71
2022/12/28 09:13:47;;;;;;;3.90;1.80;;;2.30;99.90;;;;;;4778403;29;20083;-72
2022/12/28 09:16:17;;;;;;;3.97;1.98;;;2.40;99.90;;;;;;4777808;29;20625;-72
2022/12/28 09:18:46;;;;;;;3.80;1.92;;;2.60;99.90;;;;;;4781101;29;20084;-72
2022/12/28 09:21:16;;;;;;;7.03;2.50;;;2.80;99.90;;;;;;4779528;29;20047;-71
2022/12/28 09:23:46;;;;;;;7.30;1.98;;;3.00;99.90;;;;;;4781418;29;20055;-72
2022/12/28 09:26:18;;;;;;;3.00;2.40;;;3.10;99.90;;;;;;4781436;29;20412;-73
2022/12/28 09:28:46;;;;;;;3.83;2.20;;;3.30;99.90;;;;;;4779523;29;20131;-73
2022/12/28 09:31:15;;;;;;;2.67;2.08;;;3.40;99.90;;;;;;4780428;29;20055;-73
2022/12/28 09:34:01;;;;;;;4.28;2.20;;;3.50;99.90;;;;;;4779837;29;20145;-72
2022/12/28 09:36:32;;;;;;;2.65;2.10;;;3.60;99.90;;;;;;4779142;29;20078;-72
2022/12/28 09:39:03;;;;;;;2.63;1.92;;;3.80;99.90;;;;;;4781579;29;20051;-72
2022/12/28 09:41:36;;;;;;;3.20;2.10;;;3.80;99.90;;;;;;4804542;29;20055;-71
2022/12/28 09:44:32;;;;;;;3.95;1.85;;;3.80;99.90;;;;;;4780972;29;20055;-72
2022/12/28 09:47:18;;;;;;;2.95;2.03;;;3.80;99.90;;;;;;4781117;29;20126;-73
2022/12/28 09:50:17;;;;;;;4.78;1.83;;;3.70;99.90;;;;;;4781449;29;20047;-72
2022/12/28 09:53:01;;;;;;;2.35;1.50;;;3.80;99.90;;;;;;4778399;29;20073;-73
2022/12/28 09:55:31;;;;;;;3.20;1.45;;;3.70;99.90;;;;;;4781327;29;20063;-72
2022/12/28 09:58:02;;;;;;;2.90;1.67;;;3.60;99.90;;;;;;4781852;29;20141;-72
2022/12/28 10:00:38;;;;;;;2.60;1.73;;;3.40;99.90;;;;;;4781224;29;20557;-72
2022/12/28 10:03:13;;;;;;;2.72;1.55;;;3.30;99.90;;;;;;4778949;29;20057;-73
2022/12/28 10:05:40;;;;;;;3.42;2.00;;;3.20;99.90;;;;;;4774253;29;20154;-73
2022/12/28 10:08:15;;;;;;;6.85;2.28;;;3.20;99.90;;;;;;4779202;29;20108;-73
2022/12/28 10:10:44;;;;;;;4.10;2.70;;;3.10;99.90;;;;;;4779822;29;20497;-70
2022/12/28 10:13:20;;;;;;;2.17;1.55;;;3.10;99.90;;;;;;4780526;29;20116;-70
2022/12/28 10:15:52;;;;;;;3.83;1.88;;;3.00;99.90;;;;;;4779800;29;20105;-73
2022/12/28 10:18:26;;;;;;;2.78;1.55;;;3.00;99.90;;;;;;4776025;29;20457;-73
2022/12/28 10:20:56;;;;;;;6.43;2.03;;;3.00;99.90;;;;;;4778886;29;20051;-73
2022/12/28 10:23:27;;;;;;;7.15;2.30;;;3.20;99.90;;;;;;4775291;29;20063;-72
2022/12/28 10:25:57;;;;;;;3.90;1.70;;;3.40;99.90;;;;;;4780160;29;20057;-73
2022/12/28 10:28:34;;;;;;;2.95;1.70;;;3.60;99.90;;;;;;4780272;29;20051;-71
2022/12/28 10:31:07;;;;;;;1.80;1.70;;;3.70;99.90;;;;;;4792279;29;20532;-70
2022/12/28 10:33:41;;;;;;;4.35;1.85;;;3.70;99.90;;;;;;4779027;29;20055;-69
2022/12/28 10:36:13;;;;;;;2.80;1.75;;;3.80;99.90;;;;;;4780288;29;20051;-70
2022/12/28 10:38:48;;;;;;;4.82;2.83;;;3.90;99.90;;;;;;4781077;29;20082;-68
2022/12/28 10:41:17;;;;;;;3.72;2.53;;;3.90;99.90;;;;;;4778081;29;20471;-70
2022/12/28 10:43:52;;;;;;;5.22;2.58;;;3.80;99.90;;;;;;4780854;29;20154;-71
2022/12/28 10:46:23;;;;;;;2.13;1.70;;;3.60;99.90;;;;;;4777282;29;20513;-69
2022/12/28 10:48:53;;;;;;;3.22;2.28;;;3.50;99.90;;;;;;4778471;29;20083;-69
2022/12/28 10:51:25;;;;;;;3.47;2.53;;;3.40;99.90;;;;;;4779252;29;20055;-70
2022/12/28 10:53:55;;;;;;;3.67;2.45;;;3.30;99.90;;;;;;4767365;29;20062;-69
2022/12/28 10:56:26;;;;;;;6.18;2.70;;;3.10;99.90;;;;;;4783102;29;20146;-69
2022/12/28 10:59:18;;;;;;;4.63;2.35;;;3.10;99.90;;;;;;4779102;29;20066;-72
2022/12/28 11:01:47;;;;;;;2.20;1.90;;;3.00;99.90;;;;;;4778730;29;20066;-70
2022/12/28 11:04:19;;;;;;;2.33;2.10;;;3.00;99.90;;;;;;4772661;29;20054;-69
2022/12/28 11:06:55;;;;;;;2.67;1.95;;;2.90;99.90;;;;;;4777909;29;20066;-69
2022/12/28 11:09:25;;;;;;;2.70;1.95;;;2.90;99.90;;;;;;4779102;29;20051;-71
2022/12/28 11:11:55;;;;;;;4.60;1.70;;;2.80;99.90;;;;;;4775887;29;20059;-70
2022/12/28 11:14:32;;;;;;;6.47;2.03;;;2.70;99.90;;;;;;4778017;29;20066;-72
2022/12/28 11:17:15;;;;;;;2.88;1.65;;;2.60;99.90;;;;;;4777985;29;20133;-71
2022/12/28 11:19:43;;;;;;;4.68;2.85;;;2.60;99.90;;;;;;4775571;29;20070;-69
2022/12/28 11:22:22;;;;;;;3.33;2.30;;;2.70;99.90;;;;;;4776752;29;20108;-71
2022/12/28 11:24:49;;;;;;;3.85;2.40;;;2.80;99.90;;;;;;4779471;29;20182;-70
2022/12/28 11:27:20;;;;;;;3.53;2.72;;;2.70;99.90;;;;;;4779414;29;20489;-69
2022/12/28 11:29:52;;;;;;;3.53;2.10;;;2.60;99.90;;;;;;4776489;29;20098;-71
2022/12/28 11:32:25;;;;;;;3.00;2.08;;;2.50;99.90;;;;;;4776811;29;20186;-70
2022/12/28 11:34:54;;;;;;;;;;;2.50;99.90;;;;;;4778635;29;20213;-69
2022/12/28 11:37:22;;;;;;;4.90;3.33;;;2.50;99.90;;;;;;4781040;29;20290;-69
2022/12/28 11:39:52;;;;;;;7.35;3.70;;;2.50;99.90;;;;;;4775742;29;20139;-72
2022/12/28 11:42:54;;;;;;;11.80;5.57;;;2.50;99.90;;;;;;4779331;29;20116;-74
2022/12/28 11:45:55;;;;;;;16.10;6.93;;;2.60;99.90;;;;;;4778998;29;20050;-73
2022/12/28 11:48:50;;;;;;;11.32;6.22;;;2.60;99.90;;;;;;4777577;29;20055;-73
2022/12/28 11:51:21;;;;;;;12.27;5.50;;;2.50;99.90;;;;;;4790313;29;20060;-73
2022/12/28 11:53:58;;;;;;;8.23;4.90;;;2.40;99.90;;;;;;4778934;29;20071;-72
2022/12/28 11:56:28;;;;;;;6.18;2.95;;;2.30;99.90;;;;;;4777898;29;20067;-73
2022/12/28 11:59:12;;;;;;;2.78;2.33;;;2.20;99.90;;;;;;4774422;29;20414;-74
2022/12/28 12:01:47;;;;;;;3.53;1.60;;;2.10;99.90;;;;;;4760251;29;20055;-73
2022/12/28 12:04:37;;;;;;;5.63;2.22;;;2.10;99.90;;;;;;4778149;29;20505;-71
2022/12/28 12:07:49;;;;;;;3.58;2.55;;;2.00;99.90;;;;;;4777076;29;20054;-72
2022/12/28 12:10:36;;;;;;;3.80;1.90;;;1.90;99.90;;;;;;4777113;29;20067;-70
2022/12/28 12:13:49;;;;;;;5.20;2.75;;;1.90;99.90;;;;;;4775956;29;20078;-71
2022/12/28 12:16:24;;;;;;;6.57;3.45;;;1.90;99.90;;;;;;4776971;29;20055;-70
2022/12/28 12:18:56;;;;;;;6.20;3.15;;;1.80;99.90;;;;;;4780107;29;20059;-70
2022/12/28 12:21:35;;;;;;;8.67;3.23;;;1.70;99.90;;;;;;4775571;29;20051;-71
2022/12/28 12:24:17;;;;;;;8.15;3.50;;;1.60;99.90;;;;;;4777128;29;20193;-72
2022/12/28 12:26:50;;;;;;;8.15;3.83;;;1.50;99.90;;;;;;4777911;29;20055;-71
2022/12/28 12:29:23;;;;;;;6.20;3.50;;;1.40;99.90;;;;;;4774498;29;20063;-70
2022/12/28 12:32:01;;;;;;;12.95;4.95;;;1.30;99.90;;;;;;4775486;29;20848;-70
2022/12/28 12:34:41;;;;;;;24.80;8.73;;;1.30;99.90;;;;;;4776339;29;20059;-71
2022/12/28 12:37:46;;;;;;;26.08;11.45;;;1.20;99.90;;;;;;4776419;29;20471;-73
2022/12/28 12:40:47;;;;;;;26.25;11.40;;;1.10;99.90;;;;;;4773826;29;20051;-73
2022/12/28 12:43:29;;;;;;;47.22;13.77;;;1.10;99.90;;;;;;4777410;29;20054;-72
2022/12/28 12:46:24;;;;;;;52.78;16.80;;;1.10;99.90;;;;;;4775674;29;20154;-75
2022/12/28 12:49:18;;;;;;;65.15;15.52;;;1.10;99.90;;;;;;4778205;29;20047;-74
2022/12/28 12:51:56;;;;;;;52.55;12.65;;;1.20;99.90;;;;;;4772044;29;20127;-72
2022/12/28 12:54:39;;;;;;;57.83;14.93;;;1.30;99.90;;;;;;4772784;29;20047;-72
2022/12/28 12:57:15;;;;;;;33.25;10.82;;;1.40;99.90;;;;;;4775681;29;20059;-69
2022/12/28 13:00:04;;;;;;;33.92;11.80;;;1.40;99.90;;;;;;4776504;29;20055;-71
2022/12/28 13:03:13;;;;;;;25.88;12.05;;;1.40;99.90;;;;;;4772899;29;20043;-72
2022/12/28 13:05:52;;;;;;;30.90;10.90;;;1.40;99.90;;;;;;4780017;29;20055;-70
2022/12/28 13:08:30;;;;;;;22.92;10.40;;;1.30;99.90;;;;;;4777207;29;20047;-72
2022/12/28 13:11:01;;;;;;;20.27;9.25;;;1.20;99.90;;;;;;4778534;29;20134;-71
2022/12/28 13:13:34;;;;;;;13.50;7.43;;;1.20;99.90;;;;;;4778459;29;20559;-71
2022/12/28 13:16:04;;;;;;;13.02;6.10;;;1.10;99.90;;;;;;4777669;29;20078;-73
2022/12/28 13:18:32;;;;;;;15.80;6.72;;;1.10;99.90;;;;;;4775350;29;20601;-72
2022/12/28 13:21:02;;;;;;;17.17;7.25;;;1.10;99.90;;;;;;4775501;29;20473;-71
2022/12/28 13:23:33;;;;;;;16.95;7.20;;;1.10;99.90;;;;;;4776812;29;20102;-73
2022/12/28 13:26:02;;;;;;;25.58;9.27;;;1.10;99.90;;;;;;4775191;29;20075;-73
2022/12/28 13:28:35;;;;;;;25.40;9.80;;;1.10;99.90;;;;;;4778736;29;20055;-72
2022/12/28 13:31:09;;;;;;;19.27;9.25;;;1.20;99.90;;;;;;4777303;29;20163;-73
2022/12/28 13:33:37;;;;;;;9.63;5.50;;;1.20;99.90;;;;;;4792131;29;20058;-75
2022/12/28 13:36:12;;;;;;;13.88;5.35;;;1.20;99.90;;;;;;4776667;29;21274;-73
2022/12/28 13:38:41;;;;;;;18.23;5.95;;;1.20;99.90;;;;;;4777585;29;20059;-72
2022/12/28 13:41:22;;;;;;;9.30;4.78;;;1.20;99.90;;;;;;4778490;29;20074;-71